Terminal Aerodrome Forecast
Issued by NWS Charleston, WV

Home | Current Version | Previous Version | Text Only | Print | Product List | Glossary On
Versions: 1 2 3 4 5 6 7 8 9 10 11 12 13 14 15 16 17 18 19 20 21 22
053
FTUS41 KRLX 222336
TAFBKW
TAF
KBKW 222336Z 2300/2324 15007KT P6SM BKN250
     FM230800 14010KT P6SM BKN080
     FM231400 14015G24KT P6SM OVC035
     FM231600 14016G23KT 4SM SHRA OVC025
     FM231800 14016G22KT 2SM SHRA OVC012
     FM232300 15012G20KT 3SM SHRA OVC020=

USA.gov is the U.S. government's official web portal to all federal, state and local government web resources and services.